sensor_id;sensor_type;location;lat;lon;timestamp;pressure;altitude;pressure_sealevel;temperature;humidity
20628;BME280;10473;42.734;24.258;2023-04-09T00:01:12;92066.75;;;6.99;76.21
20628;BME280;10473;42.734;24.258;2023-04-09T00:03:41;92057.72;;;7.00;76.82
20628;BME280;10473;42.734;24.258;2023-04-09T00:06:10;92056.00;;;6.92;77.32
20628;BME280;10473;42.734;24.258;2023-04-09T00:08:37;92062.34;;;7.03;76.80
20628;BME280;10473;42.734;24.258;2023-04-09T00:11:05;92064.59;;;6.89;74.47
20628;BME280;10473;42.734;24.258;2023-04-09T00:13:33;92060.84;;;6.90;74.83
20628;BME280;10473;42.734;24.258;2023-04-09T00:16:01;92065.38;;;7.05;75.21
20628;BME280;10473;42.734;24.258;2023-04-09T00:18:29;92070.06;;;7.11;75.08
20628;BME280;10473;42.734;24.258;2023-04-09T00:20:58;92068.53;;;7.10;75.09
20628;BME280;10473;42.734;24.258;2023-04-09T00:23:25;92067.09;;;7.13;75.40
20628;BME280;10473;42.734;24.258;2023-04-09T00:25:53;92075.06;;;7.16;75.33
20628;BME280;10473;42.734;24.258;2023-04-09T00:28:21;92082.66;;;7.18;75.90
20628;BME280;10473;42.734;24.258;2023-04-09T00:30:48;92090.31;;;7.23;75.72
20628;BME280;10473;42.734;24.258;2023-04-09T00:33:16;92086.31;;;7.29;75.95
20628;BME280;10473;42.734;24.258;2023-04-09T00:35:44;92091.50;;;7.25;75.08
20628;BME280;10473;42.734;24.258;2023-04-09T00:38:13;92090.97;;;7.20;74.68
20628;BME280;10473;42.734;24.258;2023-04-09T00:40:41;92088.75;;;7.06;75.77
20628;BME280;10473;42.734;24.258;2023-04-09T00:43:09;92086.19;;;7.10;76.05
20628;BME280;10473;42.734;24.258;2023-04-09T00:45:37;92096.16;;;7.16;75.29
20628;BME280;10473;42.734;24.258;2023-04-09T00:48:05;92086.81;;;7.19;76.31
20628;BME280;10473;42.734;24.258;2023-04-09T00:50:33;92080.94;;;7.10;76.95
20628;BME280;10473;42.734;24.258;2023-04-09T00:53:01;92086.13;;;7.06;77.48
20628;BME280;10473;42.734;24.258;2023-04-09T00:55:30;92077.53;;;6.94;77.40
20628;BME280;10473;42.734;24.258;2023-04-09T00:57:59;92078.75;;;6.84;78.07
20628;BME280;10473;42.734;24.258;2023-04-09T01:00:27;92078.88;;;7.03;77.11
20628;BME280;10473;42.734;24.258;2023-04-09T01:02:56;92078.53;;;7.05;77.00
20628;BME280;10473;42.734;24.258;2023-04-09T01:05:30;92081.94;;;6.90;77.42
20628;BME280;10473;42.734;24.258;2023-04-09T01:08:04;92072.91;;;6.91;77.73
20628;BME280;10473;42.734;24.258;2023-04-09T01:10:41;92079.22;;;6.86;77.33
20628;BME280;10473;42.734;24.258;2023-04-09T01:13:12;92076.91;;;6.85;76.62
20628;BME280;10473;42.734;24.258;2023-04-09T01:15:47;92075.50;;;6.60;76.61
20628;BME280;10473;42.734;24.258;2023-04-09T01:18:20;92072.63;;;6.65;76.82
20628;BME280;10473;42.734;24.258;2023-04-09T01:20:56;92066.22;;;6.50;77.46
20628;BME280;10473;42.734;24.258;2023-04-09T01:23:32;92071.00;;;6.60;78.48
20628;BME280;10473;42.734;24.258;2023-04-09T01:26:06;92067.06;;;6.54;78.61
20628;BME280;10473;42.734;24.258;2023-04-09T01:28:56;92069.03;;;6.57;77.91
20628;BME280;10473;42.734;24.258;2023-04-09T01:31:29;92070.22;;;6.60;78.54
20628;BME280;10473;42.734;24.258;2023-04-09T01:33:59;92062.75;;;6.62;78.46
20628;BME280;10473;42.734;24.258;2023-04-09T01:36:28;92065.22;;;6.55;77.57
20628;BME280;10473;42.734;24.258;2023-04-09T01:38:59;92058.81;;;6.40;79.41
20628;BME280;10473;42.734;24.258;2023-04-09T01:41:30;92065.88;;;6.52;78.76
20628;BME280;10473;42.734;24.258;2023-04-09T01:44:02;92063.09;;;6.33;78.34
20628;BME280;10473;42.734;24.258;2023-04-09T01:46:30;92061.88;;;6.30;78.75
20628;BME280;10473;42.734;24.258;2023-04-09T01:49:01;92065.94;;;6.40;79.39
20628;BME280;10473;42.734;24.258;2023-04-09T01:51:29;92068.22;;;6.14;79.56
20628;BME280;10473;42.734;24.258;2023-04-09T01:53:58;92056.53;;;6.27;79.91
20628;BME280;10473;42.734;24.258;2023-04-09T01:56:25;92054.84;;;6.19;79.38
20628;BME280;10473;42.734;24.258;2023-04-09T01:58:53;92055.09;;;5.78;81.40
20628;BME280;10473;42.734;24.258;2023-04-09T02:01:28;92056.97;;;6.01;81.28
20628;BME280;10473;42.734;24.258;2023-04-09T02:04:01;92050.28;;;5.92;81.25
20628;BME280;10473;42.734;24.258;2023-04-09T02:06:33;92059.22;;;6.15;81.15
20628;BME280;10473;42.734;24.258;2023-04-09T02:09:07;92051.97;;;6.24;80.86
20628;BME280;10473;42.734;24.258;2023-04-09T02:11:36;92057.41;;;6.31;80.90
20628;BME280;10473;42.734;24.258;2023-04-09T02:14:06;92050.72;;;6.33;80.11
20628;BME280;10473;42.734;24.258;2023-04-09T02:16:36;92054.84;;;6.19;81.00
20628;BME280;10473;42.734;24.258;2023-04-09T02:19:05;92056.31;;;6.32;80.47
20628;BME280;10473;42.734;24.258;2023-04-09T02:21:32;92056.53;;;6.27;81.49
20628;BME280;10473;42.734;24.258;2023-04-09T02:24:00;92058.38;;;6.38;81.48
20628;BME280;10473;42.734;24.258;2023-04-09T02:26:28;92045.66;;;6.40;80.73
20628;BME280;10473;42.734;24.258;2023-04-09T02:28:57;92051.91;;;6.36;80.41
20628;BME280;10473;42.734;24.258;2023-04-09T02:31:25;92053.63;;;6.44;81.50
20628;BME280;10473;42.734;24.258;2023-04-09T02:33:54;92057.78;;;6.45;80.33
20628;BME280;10473;42.734;24.258;2023-04-09T02:36:21;92054.78;;;6.58;80.79
20628;BME280;10473;42.734;24.258;2023-04-09T02:38:49;92053.72;;;6.47;80.75
20628;BME280;10473;42.734;24.258;2023-04-09T02:41:18;92059.09;;;6.51;81.89
20628;BME280;10473;42.734;24.258;2023-04-09T02:43:46;92068.47;;;6.64;81.38
20628;BME280;10473;42.734;24.258;2023-04-09T02:46:13;92062.75;;;6.62;79.90
20628;BME280;10473;42.734;24.258;2023-04-09T02:48:41;92061.69;;;6.63;80.12
20628;BME280;10473;42.734;24.258;2023-04-09T02:51:10;92065.53;;;6.53;80.83
20628;BME280;10473;42.734;24.258;2023-04-09T02:53:38;92067.19;;;6.58;80.71
20628;BME280;10473;42.734;24.258;2023-04-09T02:56:06;92064.44;;;6.54;81.45
20628;BME280;10473;42.734;24.258;2023-04-09T02:58:34;92054.06;;;6.46;81.05
20628;BME280;10473;42.734;24.258;2023-04-09T03:01:01;92063.53;;;6.62;81.05
20628;BME280;10473;42.734;24.258;2023-04-09T03:03:29;92069.44;;;6.44;82.29
20628;BME280;10473;42.734;24.258;2023-04-09T03:05:57;92059.63;;;6.56;82.82
20628;BME280;10473;42.734;24.258;2023-04-09T03:08:26;92063.13;;;6.60;81.67
20628;BME280;10473;42.734;24.258;2023-04-09T03:10:54;92059.03;;;6.63;81.73
20628;BME280;10473;42.734;24.258;2023-04-09T03:13:22;92070.53;;;6.43;82.38
20628;BME280;10473;42.734;24.258;2023-04-09T03:15:50;92070.88;;;6.57;82.45
20628;BME280;10473;42.734;24.258;2023-04-09T03:18:18;92068.50;;;6.52;81.85
20628;BME280;10473;42.734;24.258;2023-04-09T03:20:46;92072.25;;;6.51;82.59
20628;BME280;10473;42.734;24.258;2023-04-09T03:23:15;92067.94;;;6.31;83.33
20628;BME280;10473;42.734;24.258;2023-04-09T03:25:47;92071.75;;;6.33;83.39
20628;BME280;10473;42.734;24.258;2023-04-09T03:28:16;92072.69;;;6.53;83.26
20628;BME280;10473;42.734;24.258;2023-04-09T03:30:48;92068.97;;;6.42;82.93
20628;BME280;10473;42.734;24.258;2023-04-09T03:33:16;92071.75;;;6.61;83.25
20628;BME280;10473;42.734;24.258;2023-04-09T03:35:50;92073.34;;;6.50;82.87
20628;BME280;10473;42.734;24.258;2023-04-09T03:38:23;92084.28;;;6.52;82.10
20628;BME280;10473;42.734;24.258;2023-04-09T03:40:55;92072.94;;;6.48;82.20
20628;BME280;10473;42.734;24.258;2023-04-09T03:43:23;92084.50;;;6.59;80.80
20628;BME280;10473;42.734;24.258;2023-04-09T03:45:52;92072.53;;;6.34;81.04
20628;BME280;10473;42.734;24.258;2023-04-09T03:48:23;92072.53;;;6.34;82.80
20628;BME280;10473;42.734;24.258;2023-04-09T03:50:51;92071.63;;;6.42;82.31
20628;BME280;10473;42.734;24.258;2023-04-09T03:53:26;92065.06;;;6.36;82.85
20628;BME280;10473;42.734;24.258;2023-04-09T03:56:02;92073.34;;;6.22;82.67
20628;BME280;10473;42.734;24.258;2023-04-09T03:58:33;92070.78;;;6.26;82.62
20628;BME280;10473;42.734;24.258;2023-04-09T04:01:01;92068.88;;;6.38;82.63
20628;BME280;10473;42.734;24.258;2023-04-09T04:03:36;92076.06;;;6.26;81.30
20628;BME280;10473;42.734;24.258;2023-04-09T04:06:10;92073.38;;;6.38;82.32
20628;BME280;10473;42.734;24.258;2023-04-09T04:09:09;92079.97;;;6.32;81.89
20628;BME280;10473;42.734;24.258;2023-04-09T04:11:47;92082.13;;;6.42;81.65
20628;BME280;10473;42.734;24.258;2023-04-09T04:14:16;92066.19;;;6.23;81.69
20628;BME280;10473;42.734;24.258;2023-04-09T04:16:48;92082.34;;;6.49;82.48
20628;BME280;10473;42.734;24.258;2023-04-09T04:19:19;92083.56;;;6.39;81.94
20628;BME280;10473;42.734;24.258;2023-04-09T04:21:50;92081.28;;;6.38;82.49
20628;BME280;10473;42.734;24.258;2023-04-09T04:24:17;92081.16;;;6.46;81.68
20628;BME280;10473;42.734;24.258;2023-04-09T04:26:47;92089.28;;;6.41;82.09
20628;BME280;10473;42.734;24.258;2023-04-09T04:29:17;92092.41;;;6.59;81.96
20628;BME280;10473;42.734;24.258;2023-04-09T04:31:54;92093.38;;;6.27;83.11
20628;BME280;10473;42.734;24.258;2023-04-09T04:34:24;92088.94;;;6.43;83.23
20628;BME280;10473;42.734;24.258;2023-04-09T04:37:01;92100.59;;;6.30;83.34
20628;BME280;10473;42.734;24.258;2023-04-09T04:39:31;92093.75;;;6.53;82.77
20628;BME280;10473;42.734;24.258;2023-04-09T04:42:05;92096.13;;;6.58;82.54
20628;BME280;10473;42.734;24.258;2023-04-09T04:44:33;92096.72;;;6.67;82.19
20628;BME280;10473;42.734;24.258;2023-04-09T04:47:16;92096.56;;;6.60;81.76
20628;BME280;10473;42.734;24.258;2023-04-09T04:49:44;92093.03;;;6.68;82.81
20628;BME280;10473;42.734;24.258;2023-04-09T04:52:12;92101.81;;;6.60;81.95
20628;BME280;10473;42.734;24.258;2023-04-09T04:54:43;92099.13;;;6.72;82.35
20628;BME280;10473;42.734;24.258;2023-04-09T04:57:17;92100.38;;;6.62;81.26
20628;BME280;10473;42.734;24.258;2023-04-09T04:59:45;92095.53;;;6.64;81.94
20628;BME280;10473;42.734;24.258;2023-04-09T05:02:13;92100.56;;;6.69;82.02
20628;BME280;10473;42.734;24.258;2023-04-09T05:05:07;92096.72;;;6.67;80.68
20628;BME280;10473;42.734;24.258;2023-04-09T05:07:41;92102.44;;;6.69;80.52
20628;BME280;10473;42.734;24.258;2023-04-09T05:10:09;92096.56;;;6.60;81.17
20628;BME280;10473;42.734;24.258;2023-04-09T05:12:41;92101.56;;;6.65;80.38
20628;BME280;10473;42.734;24.258;2023-04-09T05:15:11;92084.75;;;6.54;81.05
20628;BME280;10473;42.734;24.258;2023-04-09T05:17:42;92096.16;;;6.73;81.32
20628;BME280;10473;42.734;24.258;2023-04-09T05:20:36;92092.16;;;6.64;81.79
20628;BME280;10473;42.734;24.258;2023-04-09T05:23:07;92099.31;;;6.79;82.54
20628;BME280;10473;42.734;24.258;2023-04-09T05:25:44;92092.19;;;6.52;83.21
20628;BME280;10473;42.734;24.258;2023-04-09T05:28:23;92094.72;;;6.76;83.65
20628;BME280;10473;42.734;24.258;2023-04-09T05:31:01;92097.69;;;6.74;83.67
20628;BME280;10473;42.734;24.258;2023-04-09T05:33:32;92097.81;;;6.78;82.94
20628;BME280;10473;42.734;24.258;2023-04-09T05:36:06;92103.97;;;6.70;83.27
20628;BME280;10473;42.734;24.258;2023-04-09T05:38:41;92103.81;;;6.78;82.76
20628;BME280;10473;42.734;24.258;2023-04-09T05:41:38;92102.38;;;6.81;82.82
20628;BME280;10473;42.734;24.258;2023-04-09T05:44:39;92107.84;;;6.88;82.51
20628;BME280;10473;42.734;24.258;2023-04-09T05:47:12;92104.97;;;6.93;83.07
20628;BME280;10473;42.734;24.258;2023-04-09T05:50:07;92109.03;;;7.06;82.53
20628;BME280;10473;42.734;24.258;2023-04-09T05:52:35;92099.88;;;7.00;82.91
20628;BME280;10473;42.734;24.258;2023-04-09T05:55:04;92105.50;;;7.14;82.23
20628;BME280;10473;42.734;24.258;2023-04-09T05:57:55;92112.50;;;7.22;81.95
20628;BME280;10473;42.734;24.258;2023-04-09T06:00:25;92113.56;;;7.21;82.09
20628;BME280;10473;42.734;24.258;2023-04-09T06:02:52;92107.22;;;7.22;81.66
20628;BME280;10473;42.734;24.258;2023-04-09T06:05:20;92107.63;;;7.24;80.90
20628;BME280;10473;42.734;24.258;2023-04-09T06:07:48;92110.91;;;6.90;80.00
20628;BME280;10473;42.734;24.258;2023-04-09T06:10:15;92100.06;;;7.07;79.99
20628;BME280;10473;42.734;24.258;2023-04-09T06:12:43;92099.22;;;7.03;80.10
20628;BME280;10473;42.734;24.258;2023-04-09T06:15:11;92112.72;;;7.01;80.12
20628;BME280;10473;42.734;24.258;2023-04-09T06:17:43;92103.00;;;6.90;80.52
20628;BME280;10473;42.734;24.258;2023-04-09T06:20:11;92110.16;;;7.05;79.15
20628;BME280;10473;42.734;24.258;2023-04-09T06:22:38;92112.22;;;7.11;78.15
20628;BME280;10473;42.734;24.258;2023-04-09T06:25:07;92099.56;;;7.17;78.02
20628;BME280;10473;42.734;24.258;2023-04-09T06:27:34;92108.88;;;6.99;79.09
20628;BME280;10473;42.734;24.258;2023-04-09T06:30:02;92114.69;;;7.20;78.59
20628;BME280;10473;42.734;24.258;2023-04-09T06:32:30;92112.31;;;7.30;78.43
20628;BME280;10473;42.734;24.258;2023-04-09T06:34:59;92120.47;;;7.41;77.39
20628;BME280;10473;42.734;24.258;2023-04-09T06:37:27;92115.63;;;7.27;77.14
20628;BME280;10473;42.734;24.258;2023-04-09T06:39:54;92116.66;;;7.23;77.35
20628;BME280;10473;42.734;24.258;2023-04-09T06:45:59;92111.94;;;7.01;77.25
20628;BME280;10473;42.734;24.258;2023-04-09T06:48:55;92103.97;;;6.70;78.64
20628;BME280;10473;42.734;24.258;2023-04-09T06:51:24;92118.25;;;6.84;78.24
20628;BME280;10473;42.734;24.258;2023-04-09T06:53:52;92124.69;;;6.99;79.52
20628;BME280;10473;42.734;24.258;2023-04-09T06:56:19;92127.72;;;7.01;78.62
20628;BME280;10473;42.734;24.258;2023-04-09T06:58:47;92131.38;;;6.96;77.37
20628;BME280;10473;42.734;24.258;2023-04-09T07:01:15;92127.47;;;6.90;77.28
20628;BME280;10473;42.734;24.258;2023-04-09T07:03:43;92132.81;;;6.94;77.96
20628;BME280;10473;42.734;24.258;2023-04-09T07:06:11;92131.47;;;7.00;77.43
20628;BME280;10473;42.734;24.258;2023-04-09T07:08:40;92133.00;;;7.01;78.75
20628;BME280;10473;42.734;24.258;2023-04-09T07:11:08;92145.31;;;7.24;78.69
20628;BME280;10473;42.734;24.258;2023-04-09T07:13:36;92137.47;;;7.28;78.94
20628;BME280;10473;42.734;24.258;2023-04-09T07:16:04;92149.63;;;7.32;79.09
20628;BME280;10473;42.734;24.258;2023-04-09T07:18:32;92133.72;;;7.29;78.20
20628;BME280;10473;42.734;24.258;2023-04-09T07:21:00;92149.81;;;7.55;78.35
20628;BME280;10473;42.734;24.258;2023-04-09T07:23:28;92148.38;;;7.73;77.93
20628;BME280;10473;42.734;24.258;2023-04-09T07:26:25;92151.78;;;7.89;76.82
20628;BME280;10473;42.734;24.258;2023-04-09T07:29:24;92142.44;;;7.76;76.99
20628;BME280;10473;42.734;24.258;2023-04-09T07:32:26;92147.50;;;8.00;77.00
20628;BME280;10473;42.734;24.258;2023-04-09T07:35:54;92155.84;;;8.02;76.60
20628;BME280;10473;42.734;24.258;2023-04-09T07:38:54;92149.72;;;7.98;76.52
20628;BME280;10473;42.734;24.258;2023-04-09T07:58:16;92165.31;;;8.72;71.83
20628;BME280;10473;42.734;24.258;2023-04-09T08:00:44;92164.00;;;9.00;71.35
20628;BME280;10473;42.734;24.258;2023-04-09T08:03:11;92167.63;;;9.11;66.63
20628;BME280;10473;42.734;24.258;2023-04-09T08:05:39;92168.44;;;9.15;62.88
20628;BME280;10473;42.734;24.258;2023-04-09T08:08:07;92173.81;;;9.00;59.48
20628;BME280;10473;42.734;24.258;2023-04-09T08:10:34;92169.91;;;9.13;60.07
20628;BME280;10473;42.734;24.258;2023-04-09T08:13:02;92168.03;;;9.13;59.30
20628;BME280;10473;42.734;24.258;2023-04-09T08:15:31;92162.13;;;9.01;60.21
20628;BME280;10473;42.734;24.258;2023-04-09T08:17:59;92162.69;;;8.91;59.24
20628;BME280;10473;42.734;24.258;2023-04-09T08:20:28;92157.97;;;9.00;60.15
20628;BME280;10473;42.734;24.258;2023-04-09T08:22:58;92164.56;;;9.09;59.95
20628;BME280;10473;42.734;24.258;2023-04-09T08:25:25;92170.28;;;9.11;59.04
20628;BME280;10473;42.734;24.258;2023-04-09T08:27:53;92170.63;;;9.29;58.83
20628;BME280;10473;42.734;24.258;2023-04-09T08:30:21;92166.06;;;9.29;58.46
20628;BME280;10473;42.734;24.258;2023-04-09T08:32:50;92170.94;;;9.46;57.52
20628;BME280;10473;42.734;24.258;2023-04-09T08:35:18;92166.66;;;10.06;55.96
20628;BME280;10473;42.734;24.258;2023-04-09T08:37:46;92168.16;;;10.55;55.56
20628;BME280;10473;42.734;24.258;2023-04-09T08:40:13;92165.16;;;10.57;54.31
20628;BME280;10473;42.734;24.258;2023-04-09T08:42:43;92161.66;;;10.79;53.94
20628;BME280;10473;42.734;24.258;2023-04-09T08:45:12;92165.94;;;10.87;54.97
20628;BME280;10473;42.734;24.258;2023-04-09T08:47:40;92154.09;;;10.81;55.79
20628;BME280;10473;42.734;24.258;2023-04-09T08:50:11;92170.16;;;10.91;54.41
20628;BME280;10473;42.734;24.258;2023-04-09T08:52:39;92178.03;;;10.58;54.50
20628;BME280;10473;42.734;24.258;2023-04-09T08:55:07;92163.28;;;10.31;53.14
20628;BME280;10473;42.734;24.258;2023-04-09T08:57:38;92164.22;;;10.20;54.81
20628;BME280;10473;42.734;24.258;2023-04-09T09:00:07;92158.03;;;10.35;57.12
20628;BME280;10473;42.734;24.258;2023-04-09T09:02:35;92149.50;;;10.74;54.71
20628;BME280;10473;42.734;24.258;2023-04-09T09:05:04;92157.81;;;10.73;53.44
20628;BME280;10473;42.734;24.258;2023-04-09T09:07:33;92154.09;;;10.81;54.05
20628;BME280;10473;42.734;24.258;2023-04-09T09:10:05;92143.28;;;10.63;53.15
20628;BME280;10473;42.734;24.258;2023-04-09T09:12:37;92142.53;;;10.63;52.68
20628;BME280;10473;42.734;24.258;2023-04-09T09:15:24;92155.22;;;10.50;53.34
20628;BME280;10473;42.734;24.258;2023-04-09T09:17:53;92143.56;;;10.55;51.91
20628;BME280;10473;42.734;24.258;2023-04-09T09:20:22;92144.88;;;10.68;51.42
20628;BME280;10473;42.734;24.258;2023-04-09T09:22:53;92150.34;;;10.82;51.10
20628;BME280;10473;42.734;24.258;2023-04-09T09:25:21;92143.59;;;10.88;51.16
20628;BME280;10473;42.734;24.258;2023-04-09T09:27:51;92143.59;;;10.88;50.54
20628;BME280;10473;42.734;24.258;2023-04-09T09:30:22;92145.13;;;10.89;50.87
20628;BME280;10473;42.734;24.258;2023-04-09T09:32:51;92144.81;;;10.94;52.01
20628;BME280;10473;42.734;24.258;2023-04-09T09:35:20;92136.78;;;10.87;50.71
20628;BME280;10473;42.734;24.258;2023-04-09T09:38:00;92140.31;;;10.98;49.62
20628;BME280;10473;42.734;24.258;2023-04-09T09:40:28;92137.50;;;10.84;48.92
20628;BME280;10473;42.734;24.258;2023-04-09T09:42:56;92119.25;;;10.79;49.28
20628;BME280;10473;42.734;24.258;2023-04-09T09:45:25;92136.81;;;10.90;50.03
20628;BME280;10473;42.734;24.258;2023-04-09T09:47:54;92137.66;;;10.98;51.15
20628;BME280;10473;42.734;24.258;2023-04-09T09:50:23;92133.16;;;10.98;48.88
20628;BME280;10473;42.734;24.258;2023-04-09T09:53:00;92144.38;;;10.88;50.52
20628;BME280;10473;42.734;24.258;2023-04-09T09:55:32;92133.84;;;10.95;49.80
20628;BME280;10473;42.734;24.258;2023-04-09T09:58:02;92133.19;;;11.02;49.90
20628;BME280;10473;42.734;24.258;2023-04-09T10:00:32;92140.59;;;10.89;49.38
20628;BME280;10473;42.734;24.258;2023-04-09T10:03:09;92126.34;;;11.01;50.47
20628;BME280;10473;42.734;24.258;2023-04-09T10:05:40;92134.13;;;11.20;49.99
20628;BME280;10473;42.734;24.258;2023-04-09T10:08:10;92128.63;;;11.02;49.42
20628;BME280;10473;42.734;24.258;2023-04-09T10:10:40;92126.41;;;11.04;48.12
20628;BME280;10473;42.734;24.258;2023-04-09T10:13:13;92123.13;;;11.18;49.11
20628;BME280;10473;42.734;24.258;2023-04-09T10:15:46;92123.59;;;11.27;48.62
20628;BME280;10473;42.734;24.258;2023-04-09T10:18:15;92120.03;;;11.49;47.22
20628;BME280;10473;42.734;24.258;2023-04-09T10:20:48;92122.25;;;11.80;47.96
20628;BME280;10473;42.734;24.258;2023-04-09T10:23:23;92124.66;;;11.99;47.25
20628;BME280;10473;42.734;24.258;2023-04-09T10:25:55;92116.16;;;11.76;46.81
20628;BME280;10473;42.734;24.258;2023-04-09T10:28:24;92110.75;;;11.69;46.19
20628;BME280;10473;42.734;24.258;2023-04-09T10:30:52;92118.28;;;12.03;45.77
20628;BME280;10473;42.734;24.258;2023-04-09T10:33:22;92111.50;;;12.13;46.07
20628;BME280;10473;42.734;24.258;2023-04-09T10:35:52;92111.34;;;11.92;46.78
20628;BME280;10473;42.734;24.258;2023-04-09T10:38:34;92103.44;;;11.59;47.07
20628;BME280;10473;42.734;24.258;2023-04-09T10:41:13;92112.81;;;11.46;46.81
20628;BME280;10473;42.734;24.258;2023-04-09T10:43:42;92112.41;;;11.44;47.13
20628;BME280;10473;42.734;24.258;2023-04-09T10:46:26;92113.31;;;11.58;48.66
20628;BME280;10473;42.734;24.258;2023-04-09T10:49:10;92115.56;;;11.56;46.87
20628;BME280;10473;42.734;24.258;2023-04-09T10:51:40;92103.97;;;11.35;47.53
20628;BME280;10473;42.734;24.258;2023-04-09T10:54:42;92111.50;;;11.29;47.81
20628;BME280;10473;42.734;24.258;2023-04-09T10:57:20;92105.59;;;11.46;49.02
20628;BME280;10473;42.734;24.258;2023-04-09T10:59:51;92105.44;;;11.29;47.00
20628;BME280;10473;42.734;24.258;2023-04-09T11:05:25;92094.91;;;11.36;47.62
20628;BME280;10473;42.734;24.258;2023-04-09T11:07:57;92076.06;;;11.48;48.12
20628;BME280;10473;42.734;24.258;2023-04-09T11:10:30;92094.16;;;11.79;45.87
20628;BME280;10473;42.734;24.258;2023-04-09T11:12:59;92085.25;;;11.57;45.55
20628;BME280;10473;42.734;24.258;2023-04-09T11:15:27;92083.84;;;11.67;47.03
20628;BME280;10473;42.734;24.258;2023-04-09T11:17:59;92091.19;;;11.84;45.21
20628;BME280;10473;42.734;24.258;2023-04-09T11:20:27;92092.44;;;11.97;44.76
20628;BME280;10473;42.734;24.258;2023-04-09T11:22:58;92092.19;;;12.19;46.70
20628;BME280;10473;42.734;24.258;2023-04-09T11:25:28;92091.97;;;12.42;46.49
20628;BME280;10473;42.734;24.258;2023-04-09T11:27:56;92091.34;;;12.69;47.33
20628;BME280;10473;42.734;24.258;2023-04-09T11:30:27;92082.97;;;12.64;44.20
20628;BME280;10473;42.734;24.258;2023-04-09T11:32:56;92088.84;;;13.01;45.35
20628;BME280;10473;42.734;24.258;2023-04-09T11:35:24;92069.50;;;13.00;44.72
20628;BME280;10473;42.734;24.258;2023-04-09T11:37:51;92082.44;;;13.16;44.26
20628;BME280;10473;42.734;24.258;2023-04-09T11:40:21;92085.47;;;13.04;42.73
20628;BME280;10473;42.734;24.258;2023-04-09T11:42:51;92067.13;;;12.85;44.38
20628;BME280;10473;42.734;24.258;2023-04-09T11:45:23;92066.06;;;13.03;44.91
20628;BME280;10473;42.734;24.258;2023-04-09T11:47:56;92065.72;;;13.12;43.63
20628;BME280;10473;42.734;24.258;2023-04-09T11:50:24;92069.59;;;13.39;43.72
20628;BME280;10473;42.734;24.258;2023-04-09T11:52:52;92066.47;;;13.09;43.39
20628;BME280;10473;42.734;24.258;2023-04-09T11:55:23;92058.09;;;13.00;42.66
20628;BME280;10473;42.734;24.258;2023-04-09T11:57:55;92067.25;;;13.13;43.07
20628;BME280;10473;42.734;24.258;2023-04-09T12:00:24;92062.59;;;12.92;42.41
20628;BME280;10473;42.734;24.258;2023-04-09T12:03:00;92050.09;;;13.07;43.79
20628;BME280;10473;42.734;24.258;2023-04-09T12:05:29;92047.91;;;13.23;42.19
20628;BME280;10473;42.734;24.258;2023-04-09T12:07:58;92041.75;;;13.01;43.50
20628;BME280;10473;42.734;24.258;2023-04-09T12:10:28;92047.50;;;13.21;43.32
20628;BME280;10473;42.734;24.258;2023-04-09T12:13:04;92055.06;;;13.08;43.27
20628;BME280;10473;42.734;24.258;2023-04-09T12:15:33;92043.25;;;12.99;43.76
20628;BME280;10473;42.734;24.258;2023-04-09T12:18:07;92045.81;;;12.78;44.98
20628;BME280;10473;42.734;24.258;2023-04-09T12:20:36;92038.16;;;12.62;44.83
20628;BME280;10473;42.734;24.258;2023-04-09T12:23:06;92039.94;;;12.34;44.86
20628;BME280;10473;42.734;24.258;2023-04-09T12:25:35;92038.38;;;12.29;46.65
20628;BME280;10473;42.734;24.258;2023-04-09T12:28:05;92034.13;;;12.18;47.17
20628;BME280;10473;42.734;24.258;2023-04-09T12:30:37;92039.00;;;12.09;47.22
20628;BME280;10473;42.734;24.258;2023-04-09T12:33:10;92033.31;;;12.07;47.55
20628;BME280;10473;42.734;24.258;2023-04-09T12:35:38;92014.72;;;12.07;48.29
20628;BME280;10473;42.734;24.258;2023-04-09T12:38:05;92032.22;;;12.15;46.70
20628;BME280;10473;42.734;24.258;2023-04-09T12:40:34;92027.53;;;11.91;47.13
20628;BME280;10473;42.734;24.258;2023-04-09T12:43:02;92029.78;;;11.89;46.61
20628;BME280;10473;42.734;24.258;2023-04-09T12:45:31;92036.44;;;11.69;46.11
20628;BME280;10473;42.734;24.258;2023-04-09T12:47:59;92040.06;;;11.50;46.17
20628;BME280;10473;42.734;24.258;2023-04-09T12:50:28;92036.66;;;11.50;46.11
20628;BME280;10473;42.734;24.258;2023-04-09T12:52:57;92037.03;;;11.48;45.59
20628;BME280;10473;42.734;24.258;2023-04-09T12:55:24;92033.47;;;11.34;45.46
20628;BME280;10473;42.734;24.258;2023-04-09T12:57:53;92047.22;;;11.43;45.13
20628;BME280;10473;42.734;24.258;2023-04-09T13:00:20;92037.72;;;11.42;46.33
20628;BME280;10473;42.734;24.258;2023-04-09T13:02:48;92033.47;;;11.34;46.69
20628;BME280;10473;42.734;24.258;2023-04-09T13:05:17;92034.94;;;11.28;47.66
20628;BME280;10473;42.734;24.258;2023-04-09T13:07:46;92031.94;;;11.29;47.62
20628;BME280;10473;42.734;24.258;2023-04-09T13:10:21;92031.94;;;11.29;48.71
20628;BME280;10473;42.734;24.258;2023-04-09T13:12:49;92034.25;;;11.34;48.68
20628;BME280;10473;42.734;24.258;2023-04-09T13:15:17;92026.50;;;11.15;47.97
20628;BME280;10473;42.734;24.258;2023-04-09T13:17:44;92031.50;;;11.24;49.39
20628;BME280;10473;42.734;24.258;2023-04-09T13:20:12;92029.97;;;11.23;48.98
20628;BME280;10473;42.734;24.258;2023-04-09T13:22:40;92031.91;;;11.26;49.11
20628;BME280;10473;42.734;24.258;2023-04-09T13:25:09;92025.69;;;11.11;48.31
20628;BME280;10473;42.734;24.258;2023-04-09T13:27:37;92025.66;;;11.08;47.86
20628;BME280;10473;42.734;24.258;2023-04-09T13:30:06;92034.81;;;11.14;49.41
20628;BME280;10473;42.734;24.258;2023-04-09T13:32:37;92029.00;;;11.01;47.96
20628;BME280;10473;42.734;24.258;2023-04-09T13:35:05;92030.91;;;11.01;48.05
20628;BME280;10473;42.734;24.258;2023-04-09T13:37:34;92014.44;;;10.85;47.48
20628;BME280;10473;42.734;24.258;2023-04-09T13:40:01;92024.66;;;10.83;48.75